ポートオブスペイン の空港の天気 - METARとTAF

ピアルコ国際空港(ポートオブスペイン) ( TTPP / POS ) - トリニダード・トバゴ ポートオブスペイン (トリニダード島)
飛行場実況気象(Metar)
観測時間04/21 12:00 AST (04/21 16:00 UTC)
風向・風速東 8m/s
視程10km以上
天気現象周辺でしゅう雨
少しの雲 雲底高度 760m
全天の8割程度の雲 雲底高度 1370m
気温31℃
湿度59%
気圧1014hPa
METARTTPP 211600Z 09015KT 9999 VCSH FEW025 BKN045 31/22 Q1014 NOSIG
過去の天気等 Google飛行場航空写真 Wunderground天気予報

過去48時間のMETAR

飛行場予報(TAF)
発表時間: 4/21 06:00 AST (4/21 10:00 UTC)
予報対象時間: 21日8時 AST ~ 22日8時 AST
風向・風速東 8m/s
視程10km以上
全天の4割程度の雲 雲底高度 670m
21日11時 AST ~ 21日15時 AST に 確率 30% で一時的に
視程8000m
天気現象しゅう雨 周辺でしゅう雨
全天の4割程度の雲 雲底高度 490m
全天の4割程度の雲 雲底高度 1070m
21日20時 AST ~ 21日22時 AST に徐々に
風向・風速東 3m/s
少しの雲 雲底高度 550m
TAF TTPP 211000Z 2112/2212 10015KT 9999 SCT022
PROB30 TEMPO 2115/2119 8000 SHRA VCSH SCT016 SCT035
BECMG 2200/2202 10005KT FEW018